sensor_id;sensor_type;location;lat;lon;timestamp;P1;durP1;ratioP1;P2;durP2;ratioP2
1428;SDS011;708;51.442;7.016;2022-12-18T00:02:13;10.10;;;7.85;;
1428;SDS011;708;51.442;7.016;2022-12-18T00:04:40;9.40;;;8.40;;
1428;SDS011;708;51.442;7.016;2022-12-18T00:07:06;11.57;;;9.18;;
1428;SDS011;708;51.442;7.016;2022-12-18T00:09:33;18.58;;;10.25;;
1428;SDS011;708;51.442;7.016;2022-12-18T00:12:00;21.55;;;11.63;;
1428;SDS011;708;51.442;7.016;2022-12-18T00:14:27;12.10;;;9.82;;
1428;SDS011;708;51.442;7.016;2022-12-18T00:16:55;12.98;;;10.32;;
1428;SDS011;708;51.442;7.016;2022-12-18T00:19:23;10.40;;;8.75;;
1428;SDS011;708;51.442;7.016;2022-12-18T00:21:50;13.25;;;9.70;;
1428;SDS011;708;51.442;7.016;2022-12-18T00:24:16;15.95;;;8.50;;
1428;SDS011;708;51.442;7.016;2022-12-18T00:26:43;13.65;;;10.13;;
1428;SDS011;708;51.442;7.016;2022-12-18T00:29:11;12.98;;;8.48;;
1428;SDS011;708;51.442;7.016;2022-12-18T00:31:40;10.23;;;8.10;;
1428;SDS011;708;51.442;7.016;2022-12-18T00:34:10;9.23;;;8.20;;
1428;SDS011;708;51.442;7.016;2022-12-18T00:36:37;10.00;;;8.55;;
1428;SDS011;708;51.442;7.016;2022-12-18T00:39:05;12.45;;;7.80;;
1428;SDS011;708;51.442;7.016;2022-12-18T00:41:32;10.73;;;8.07;;
1428;SDS011;708;51.442;7.016;2022-12-18T00:44:17;10.98;;;7.80;;
1428;SDS011;708;51.442;7.016;2022-12-18T00:46:45;10.48;;;7.68;;
1428;SDS011;708;51.442;7.016;2022-12-18T00:49:14;13.30;;;9.55;;
1428;SDS011;708;51.442;7.016;2022-12-18T00:51:41;10.38;;;8.55;;
1428;SDS011;708;51.442;7.016;2022-12-18T00:54:08;8.90;;;8.00;;
1428;SDS011;708;51.442;7.016;2022-12-18T00:56:35;12.38;;;8.10;;
1428;SDS011;708;51.442;7.016;2022-12-18T00:59:03;12.98;;;7.97;;
1428;SDS011;708;51.442;7.016;2022-12-18T01:01:30;9.90;;;8.23;;
1428;SDS011;708;51.442;7.016;2022-12-18T01:03:57;11.63;;;8.68;;
1428;SDS011;708;51.442;7.016;2022-12-18T01:06:26;11.32;;;7.80;;
1428;SDS011;708;51.442;7.016;2022-12-18T01:08:53;11.43;;;8.23;;
1428;SDS011;708;51.442;7.016;2022-12-18T01:11:20;12.80;;;8.30;;
1428;SDS011;708;51.442;7.016;2022-12-18T01:13:47;11.15;;;8.07;;
1428;SDS011;708;51.442;7.016;2022-12-18T01:16:15;9.05;;;7.60;;
1428;SDS011;708;51.442;7.016;2022-12-18T01:18:42;11.48;;;7.28;;
1428;SDS011;708;51.442;7.016;2022-12-18T01:21:09;9.07;;;6.70;;
1428;SDS011;708;51.442;7.016;2022-12-18T01:23:40;9.88;;;7.53;;
1428;SDS011;708;51.442;7.016;2022-12-18T01:26:07;11.18;;;6.97;;
1428;SDS011;708;51.442;7.016;2022-12-18T01:28:36;12.88;;;7.88;;
1428;SDS011;708;51.442;7.016;2022-12-18T01:31:10;9.30;;;6.70;;
1428;SDS011;708;51.442;7.016;2022-12-18T01:33:38;10.98;;;7.78;;
1428;SDS011;708;51.442;7.016;2022-12-18T01:36:04;11.25;;;7.35;;
1428;SDS011;708;51.442;7.016;2022-12-18T01:38:32;9.57;;;7.57;;
1428;SDS011;708;51.442;7.016;2022-12-18T01:41:01;9.88;;;7.13;;
1428;SDS011;708;51.442;7.016;2022-12-18T01:43:40;8.20;;;7.38;;
1428;SDS011;708;51.442;7.016;2022-12-18T01:46:08;8.15;;;6.95;;
1428;SDS011;708;51.442;7.016;2022-12-18T01:48:35;9.70;;;6.80;;
1428;SDS011;708;51.442;7.016;2022-12-18T01:51:02;10.98;;;7.32;;
1428;SDS011;708;51.442;7.016;2022-12-18T01:53:30;9.68;;;7.25;;
1428;SDS011;708;51.442;7.016;2022-12-18T01:55:57;9.68;;;6.45;;
1428;SDS011;708;51.442;7.016;2022-12-18T01:58:27;8.10;;;6.03;;
1428;SDS011;708;51.442;7.016;2022-12-18T02:01:01;8.82;;;6.65;;
1428;SDS011;708;51.442;7.016;2022-12-18T02:03:28;10.82;;;7.75;;
1428;SDS011;708;51.442;7.016;2022-12-18T02:05:56;8.93;;;6.90;;
1428;SDS011;708;51.442;7.016;2022-12-18T02:08:33;7.40;;;6.43;;
1428;SDS011;708;51.442;7.016;2022-12-18T02:11:10;8.30;;;6.95;;
1428;SDS011;708;51.442;7.016;2022-12-18T02:13:44;8.55;;;7.47;;
1428;SDS011;708;51.442;7.016;2022-12-18T02:16:19;10.63;;;7.15;;
1428;SDS011;708;51.442;7.016;2022-12-18T02:18:51;9.98;;;7.45;;
1428;SDS011;708;51.442;7.016;2022-12-18T02:21:26;8.57;;;6.63;;
1428;SDS011;708;51.442;7.016;2022-12-18T02:24:03;9.50;;;6.65;;
1428;SDS011;708;51.442;7.016;2022-12-18T02:26:44;9.68;;;6.63;;
1428;SDS011;708;51.442;7.016;2022-12-18T02:29:15;8.43;;;6.85;;
1428;SDS011;708;51.442;7.016;2022-12-18T02:31:47;10.20;;;6.38;;
1428;SDS011;708;51.442;7.016;2022-12-18T02:34:17;10.00;;;7.28;;
1428;SDS011;708;51.442;7.016;2022-12-18T02:36:48;9.70;;;6.90;;
1428;SDS011;708;51.442;7.016;2022-12-18T02:39:17;8.18;;;6.07;;
1428;SDS011;708;51.442;7.016;2022-12-18T02:41:48;8.20;;;6.32;;
1428;SDS011;708;51.442;7.016;2022-12-18T02:44:15;10.48;;;6.32;;
1428;SDS011;708;51.442;7.016;2022-12-18T02:46:42;10.90;;;7.45;;
1428;SDS011;708;51.442;7.016;2022-12-18T02:49:13;7.50;;;5.93;;
1428;SDS011;708;51.442;7.016;2022-12-18T02:51:53;6.88;;;5.90;;
1428;SDS011;708;51.442;7.016;2022-12-18T02:54:37;9.60;;;6.72;;
1428;SDS011;708;51.442;7.016;2022-12-18T02:57:18;8.30;;;5.90;;
1428;SDS011;708;51.442;7.016;2022-12-18T02:59:53;9.43;;;6.82;;
1428;SDS011;708;51.442;7.016;2022-12-18T03:02:26;8.88;;;6.07;;
1428;SDS011;708;51.442;7.016;2022-12-18T03:05:01;7.60;;;5.70;;
1428;SDS011;708;51.442;7.016;2022-12-18T03:07:35;8.57;;;6.30;;
1428;SDS011;708;51.442;7.016;2022-12-18T03:10:06;9.07;;;6.30;;
1428;SDS011;708;51.442;7.016;2022-12-18T03:12:37;8.02;;;6.13;;
1428;SDS011;708;51.442;7.016;2022-12-18T03:15:10;9.30;;;6.55;;
1428;SDS011;708;51.442;7.016;2022-12-18T03:17:41;8.30;;;6.38;;
1428;SDS011;708;51.442;7.016;2022-12-18T03:20:12;8.77;;;5.85;;
1428;SDS011;708;51.442;7.016;2022-12-18T03:22:42;9.30;;;6.53;;
1428;SDS011;708;51.442;7.016;2022-12-18T03:25:12;10.43;;;6.50;;
1428;SDS011;708;51.442;7.016;2022-12-18T03:27:43;9.75;;;6.68;;
1428;SDS011;708;51.442;7.016;2022-12-18T03:30:14;7.78;;;6.20;;
1428;SDS011;708;51.442;7.016;2022-12-18T03:32:42;8.50;;;6.78;;
1428;SDS011;708;51.442;7.016;2022-12-18T03:35:14;9.60;;;5.82;;
1428;SDS011;708;51.442;7.016;2022-12-18T03:37:47;8.00;;;6.05;;
1428;SDS011;708;51.442;7.016;2022-12-18T03:40:14;7.90;;;5.90;;
1428;SDS011;708;51.442;7.016;2022-12-18T03:42:45;9.90;;;6.97;;
1428;SDS011;708;51.442;7.016;2022-12-18T03:45:19;8.80;;;6.05;;
1428;SDS011;708;51.442;7.016;2022-12-18T03:47:52;6.00;;;5.03;;
1428;SDS011;708;51.442;7.016;2022-12-18T03:50:27;9.25;;;6.72;;
1428;SDS011;708;51.442;7.016;2022-12-18T03:53:02;7.72;;;6.07;;
1428;SDS011;708;51.442;7.016;2022-12-18T03:55:41;8.07;;;5.85;;
1428;SDS011;708;51.442;7.016;2022-12-18T03:58:10;8.70;;;6.20;;
1428;SDS011;708;51.442;7.016;2022-12-18T04:00:42;7.97;;;6.15;;
1428;SDS011;708;51.442;7.016;2022-12-18T04:03:09;7.78;;;5.60;;
1428;SDS011;708;51.442;7.016;2022-12-18T04:05:38;7.45;;;5.78;;
1428;SDS011;708;51.442;7.016;2022-12-18T04:08:06;8.40;;;5.75;;
1428;SDS011;708;51.442;7.016;2022-12-18T04:10:33;10.90;;;5.90;;
1428;SDS011;708;51.442;7.016;2022-12-18T04:13:00;7.80;;;5.70;;
1428;SDS011;708;51.442;7.016;2022-12-18T04:15:29;6.70;;;5.55;;
1428;SDS011;708;51.442;7.016;2022-12-18T04:17:57;7.60;;;5.80;;
1428;SDS011;708;51.442;7.016;2022-12-18T04:20:24;6.50;;;5.68;;
1428;SDS011;708;51.442;7.016;2022-12-18T04:22:51;6.90;;;5.13;;
1428;SDS011;708;51.442;7.016;2022-12-18T04:25:18;6.55;;;5.38;;
1428;SDS011;708;51.442;7.016;2022-12-18T04:27:44;6.97;;;6.05;;
1428;SDS011;708;51.442;7.016;2022-12-18T04:30:15;5.60;;;5.00;;
1428;SDS011;708;51.442;7.016;2022-12-18T04:32:43;9.90;;;5.90;;
1428;SDS011;708;51.442;7.016;2022-12-18T04:35:10;7.85;;;5.15;;
1428;SDS011;708;51.442;7.016;2022-12-18T04:37:37;7.03;;;5.55;;
1428;SDS011;708;51.442;7.016;2022-12-18T04:40:04;6.50;;;5.70;;
1428;SDS011;708;51.442;7.016;2022-12-18T04:42:32;8.18;;;5.57;;
1428;SDS011;708;51.442;7.016;2022-12-18T04:44:59;8.95;;;5.40;;
1428;SDS011;708;51.442;7.016;2022-12-18T04:47:25;6.57;;;4.68;;
1428;SDS011;708;51.442;7.016;2022-12-18T04:49:53;6.63;;;5.20;;
1428;SDS011;708;51.442;7.016;2022-12-18T04:52:20;6.38;;;5.68;;
1428;SDS011;708;51.442;7.016;2022-12-18T04:54:47;8.18;;;6.70;;
1428;SDS011;708;51.442;7.016;2022-12-18T04:57:14;6.80;;;5.60;;
1428;SDS011;708;51.442;7.016;2022-12-18T04:59:41;8.32;;;6.72;;
1428;SDS011;708;51.442;7.016;2022-12-18T05:02:07;8.27;;;6.05;;
1428;SDS011;708;51.442;7.016;2022-12-18T05:04:34;8.70;;;6.13;;
1428;SDS011;708;51.442;7.016;2022-12-18T05:07:02;8.93;;;6.50;;
1428;SDS011;708;51.442;7.016;2022-12-18T05:09:29;7.78;;;5.97;;
1428;SDS011;708;51.442;7.016;2022-12-18T05:11:56;8.32;;;5.90;;
1428;SDS011;708;51.442;7.016;2022-12-18T05:14:23;9.02;;;5.88;;
1428;SDS011;708;51.442;7.016;2022-12-18T05:16:49;7.80;;;5.90;;
1428;SDS011;708;51.442;7.016;2022-12-18T05:19:16;10.32;;;7.75;;
1428;SDS011;708;51.442;7.016;2022-12-18T05:21:43;8.65;;;6.53;;
1428;SDS011;708;51.442;7.016;2022-12-18T05:24:11;7.28;;;5.00;;
1428;SDS011;708;51.442;7.016;2022-12-18T05:26:38;7.20;;;5.35;;
1428;SDS011;708;51.442;7.016;2022-12-18T05:29:05;7.68;;;4.97;;
1428;SDS011;708;51.442;7.016;2022-12-18T05:31:32;6.75;;;4.68;;
1428;SDS011;708;51.442;7.016;2022-12-18T05:33:58;6.45;;;5.10;;
1428;SDS011;708;51.442;7.016;2022-12-18T05:36:25;7.80;;;5.55;;
1428;SDS011;708;51.442;7.016;2022-12-18T05:38:52;5.57;;;4.75;;
1428;SDS011;708;51.442;7.016;2022-12-18T05:41:20;7.82;;;5.20;;
1428;SDS011;708;51.442;7.016;2022-12-18T05:43:47;6.40;;;4.97;;
1428;SDS011;708;51.442;7.016;2022-12-18T05:46:15;5.95;;;4.32;;
1428;SDS011;708;51.442;7.016;2022-12-18T05:48:43;8.80;;;4.72;;
1428;SDS011;708;51.442;7.016;2022-12-18T05:51:11;9.13;;;5.68;;
1428;SDS011;708;51.442;7.016;2022-12-18T05:53:41;6.78;;;4.97;;
1428;SDS011;708;51.442;7.016;2022-12-18T05:56:09;6.65;;;5.28;;
1428;SDS011;708;51.442;7.016;2022-12-18T05:58:38;6.70;;;4.80;;
1428;SDS011;708;51.442;7.016;2022-12-18T06:01:06;5.30;;;4.28;;
1428;SDS011;708;51.442;7.016;2022-12-18T06:03:34;4.93;;;4.00;;
1428;SDS011;708;51.442;7.016;2022-12-18T06:06:01;4.72;;;4.30;;
1428;SDS011;708;51.442;7.016;2022-12-18T06:08:29;5.75;;;5.03;;
1428;SDS011;708;51.442;7.016;2022-12-18T06:10:56;6.95;;;4.88;;
1428;SDS011;708;51.442;7.016;2022-12-18T06:13:22;4.45;;;3.83;;
1428;SDS011;708;51.442;7.016;2022-12-18T06:15:50;5.88;;;4.30;;
1428;SDS011;708;51.442;7.016;2022-12-18T06:18:17;7.40;;;4.90;;
1428;SDS011;708;51.442;7.016;2022-12-18T06:20:44;6.65;;;4.40;;
1428;SDS011;708;51.442;7.016;2022-12-18T06:23:11;8.48;;;4.63;;
1428;SDS011;708;51.442;7.016;2022-12-18T06:25:38;6.50;;;4.45;;
1428;SDS011;708;51.442;7.016;2022-12-18T06:28:05;6.25;;;5.28;;
1428;SDS011;708;51.442;7.016;2022-12-18T06:30:32;8.23;;;5.20;;
1428;SDS011;708;51.442;7.016;2022-12-18T06:33:00;6.80;;;4.47;;
1428;SDS011;708;51.442;7.016;2022-12-18T06:35:27;7.38;;;5.10;;
1428;SDS011;708;51.442;7.016;2022-12-18T06:37:53;6.90;;;5.32;;
1428;SDS011;708;51.442;7.016;2022-12-18T06:40:20;8.23;;;5.78;;
1428;SDS011;708;51.442;7.016;2022-12-18T06:42:47;6.75;;;4.88;;
1428;SDS011;708;51.442;7.016;2022-12-18T06:45:15;6.60;;;3.85;;
1428;SDS011;708;51.442;7.016;2022-12-18T06:47:42;6.00;;;4.97;;
1428;SDS011;708;51.442;7.016;2022-12-18T06:50:10;5.55;;;3.97;;
1428;SDS011;708;51.442;7.016;2022-12-18T06:52:38;5.60;;;4.40;;
1428;SDS011;708;51.442;7.016;2022-12-18T06:55:06;6.93;;;5.22;;
1428;SDS011;708;51.442;7.016;2022-12-18T06:57:34;8.00;;;5.88;;
1428;SDS011;708;51.442;7.016;2022-12-18T07:00:01;8.15;;;6.07;;
1428;SDS011;708;51.442;7.016;2022-12-18T07:02:29;8.23;;;5.43;;
1428;SDS011;708;51.442;7.016;2022-12-18T07:04:56;8.15;;;6.13;;
1428;SDS011;708;51.442;7.016;2022-12-18T07:07:26;5.70;;;4.43;;
1428;SDS011;708;51.442;7.016;2022-12-18T07:09:53;6.75;;;5.07;;
1428;SDS011;708;51.442;7.016;2022-12-18T07:12:20;7.18;;;4.63;;
1428;SDS011;708;51.442;7.016;2022-12-18T07:14:47;5.63;;;4.25;;
1428;SDS011;708;51.442;7.016;2022-12-18T07:17:13;5.85;;;4.85;;
1428;SDS011;708;51.442;7.016;2022-12-18T07:19:40;6.40;;;4.90;;
1428;SDS011;708;51.442;7.016;2022-12-18T07:22:07;7.65;;;4.50;;
1428;SDS011;708;51.442;7.016;2022-12-18T07:24:38;5.90;;;4.13;;
1428;SDS011;708;51.442;7.016;2022-12-18T07:27:04;5.63;;;4.63;;
1428;SDS011;708;51.442;7.016;2022-12-18T07:29:31;7.78;;;5.10;;
1428;SDS011;708;51.442;7.016;2022-12-18T07:31:58;6.63;;;4.57;;
1428;SDS011;708;51.442;7.016;2022-12-18T07:34:25;6.28;;;4.53;;
1428;SDS011;708;51.442;7.016;2022-12-18T07:36:52;8.68;;;4.90;;
1428;SDS011;708;51.442;7.016;2022-12-18T07:39:19;8.88;;;4.90;;
1428;SDS011;708;51.442;7.016;2022-12-18T07:41:47;6.80;;;4.40;;
1428;SDS011;708;51.442;7.016;2022-12-18T07:44:33;5.65;;;5.00;;
1428;SDS011;708;51.442;7.016;2022-12-18T07:47:00;6.20;;;4.32;;
1428;SDS011;708;51.442;7.016;2022-12-18T07:49:27;4.95;;;4.45;;
1428;SDS011;708;51.442;7.016;2022-12-18T07:51:57;5.35;;;4.13;;
1428;SDS011;708;51.442;7.016;2022-12-18T07:54:24;7.45;;;4.47;;
1428;SDS011;708;51.442;7.016;2022-12-18T07:56:52;6.53;;;4.93;;
1428;SDS011;708;51.442;7.016;2022-12-18T07:59:19;6.10;;;4.35;;
1428;SDS011;708;51.442;7.016;2022-12-18T08:01:46;10.90;;;7.95;;
1428;SDS011;708;51.442;7.016;2022-12-18T08:04:13;7.22;;;5.05;;
1428;SDS011;708;51.442;7.016;2022-12-18T08:06:39;10.70;;;6.10;;
1428;SDS011;708;51.442;7.016;2022-12-18T08:09:06;10.25;;;6.85;;
1428;SDS011;708;51.442;7.016;2022-12-18T08:11:34;6.60;;;5.40;;
1428;SDS011;708;51.442;7.016;2022-12-18T08:14:02;9.15;;;5.80;;
1428;SDS011;708;51.442;7.016;2022-12-18T08:16:29;8.65;;;6.50;;
1428;SDS011;708;51.442;7.016;2022-12-18T08:18:56;6.57;;;4.85;;
1428;SDS011;708;51.442;7.016;2022-12-18T08:21:23;9.00;;;6.40;;
1428;SDS011;708;51.442;7.016;2022-12-18T08:23:52;5.90;;;4.75;;
1428;SDS011;708;51.442;7.016;2022-12-18T08:26:20;9.48;;;5.55;;
1428;SDS011;708;51.442;7.016;2022-12-18T08:28:47;7.35;;;4.45;;
1428;SDS011;708;51.442;7.016;2022-12-18T08:31:15;9.32;;;5.30;;
1428;SDS011;708;51.442;7.016;2022-12-18T08:33:42;6.85;;;6.05;;
1428;SDS011;708;51.442;7.016;2022-12-18T08:36:09;9.13;;;6.00;;
1428;SDS011;708;51.442;7.016;2022-12-18T08:38:37;8.40;;;5.22;;
1428;SDS011;708;51.442;7.016;2022-12-18T08:41:04;6.18;;;4.95;;
1428;SDS011;708;51.442;7.016;2022-12-18T08:43:32;11.57;;;9.73;;
1428;SDS011;708;51.442;7.016;2022-12-18T08:46:18;15.35;;;13.45;;
1428;SDS011;708;51.442;7.016;2022-12-18T08:48:45;5.72;;;4.05;;
1428;SDS011;708;51.442;7.016;2022-12-18T08:51:13;5.30;;;3.92;;
1428;SDS011;708;51.442;7.016;2022-12-18T08:53:41;6.40;;;4.95;;
1428;SDS011;708;51.442;7.016;2022-12-18T08:56:09;5.00;;;3.80;;
1428;SDS011;708;51.442;7.016;2022-12-18T08:58:36;5.15;;;4.07;;
1428;SDS011;708;51.442;7.016;2022-12-18T09:01:03;4.35;;;3.70;;
1428;SDS011;708;51.442;7.016;2022-12-18T09:03:32;6.20;;;4.22;;
1428;SDS011;708;51.442;7.016;2022-12-18T09:05:59;5.13;;;4.25;;
1428;SDS011;708;51.442;7.016;2022-12-18T09:08:26;6.50;;;4.80;;
1428;SDS011;708;51.442;7.016;2022-12-18T09:10:53;4.35;;;3.80;;
1428;SDS011;708;51.442;7.016;2022-12-18T09:13:21;6.22;;;3.63;;
1428;SDS011;708;51.442;7.016;2022-12-18T09:15:48;5.20;;;4.20;;
1428;SDS011;708;51.442;7.016;2022-12-18T09:18:17;6.55;;;4.15;;
1428;SDS011;708;51.442;7.016;2022-12-18T09:20:45;5.57;;;4.75;;
1428;SDS011;708;51.442;7.016;2022-12-18T09:23:12;5.28;;;3.78;;
1428;SDS011;708;51.442;7.016;2022-12-18T09:25:40;5.00;;;3.67;;
1428;SDS011;708;51.442;7.016;2022-12-18T09:28:09;6.32;;;3.55;;
1428;SDS011;708;51.442;7.016;2022-12-18T09:30:37;5.10;;;3.75;;
1428;SDS011;708;51.442;7.016;2022-12-18T09:33:04;4.50;;;3.47;;
1428;SDS011;708;51.442;7.016;2022-12-18T09:35:32;5.95;;;3.55;;
1428;SDS011;708;51.442;7.016;2022-12-18T09:38:00;6.03;;;3.78;;
1428;SDS011;708;51.442;7.016;2022-12-18T09:40:28;5.60;;;3.75;;
1428;SDS011;708;51.442;7.016;2022-12-18T09:43:01;4.85;;;3.30;;
1428;SDS011;708;51.442;7.016;2022-12-18T09:45:30;5.55;;;3.67;;
1428;SDS011;708;51.442;7.016;2022-12-18T09:48:04;5.97;;;3.90;;
1428;SDS011;708;51.442;7.016;2022-12-18T09:50:32;6.32;;;3.67;;
1428;SDS011;708;51.442;7.016;2022-12-18T09:53:05;4.43;;;3.90;;
1428;SDS011;708;51.442;7.016;2022-12-18T09:55:36;5.00;;;3.67;;
1428;SDS011;708;51.442;7.016;2022-12-18T09:58:06;8.00;;;3.83;;
1428;SDS011;708;51.442;7.016;2022-12-18T10:00:40;4.82;;;3.65;;
1428;SDS011;708;51.442;7.016;2022-12-18T10:03:08;4.85;;;3.25;;
1428;SDS011;708;51.442;7.016;2022-12-18T10:05:37;5.05;;;3.72;;
1428;SDS011;708;51.442;7.016;2022-12-18T10:08:10;6.65;;;3.70;;
1428;SDS011;708;51.442;7.016;2022-12-18T10:10:43;7.50;;;4.00;;
1428;SDS011;708;51.442;7.016;2022-12-18T10:13:24;7.30;;;4.15;;
1428;SDS011;708;51.442;7.016;2022-12-18T10:16:00;9.25;;;3.70;;
1428;SDS011;708;51.442;7.016;2022-12-18T10:18:38;5.45;;;4.32;;
1428;SDS011;708;51.442;7.016;2022-12-18T10:21:21;5.50;;;3.90;;
1428;SDS011;708;51.442;7.016;2022-12-18T10:23:57;6.40;;;4.30;;
1428;SDS011;708;51.442;7.016;2022-12-18T10:26:31;5.28;;;4.47;;
1428;SDS011;708;51.442;7.016;2022-12-18T10:28:58;6.00;;;3.80;;
1428;SDS011;708;51.442;7.016;2022-12-18T10:31:26;7.95;;;4.15;;
1428;SDS011;708;51.442;7.016;2022-12-18T10:33:53;6.75;;;3.65;;
1428;SDS011;708;51.442;7.016;2022-12-18T10:36:20;10.52;;;4.50;;
1428;SDS011;708;51.442;7.016;2022-12-18T10:38:49;5.25;;;3.92;;
1428;SDS011;708;51.442;7.016;2022-12-18T10:41:26;10.05;;;5.10;;
1428;SDS011;708;51.442;7.016;2022-12-18T10:46:40;4.47;;;3.90;;
1428;SDS011;708;51.442;7.016;2022-12-18T10:49:17;5.40;;;3.50;;
1428;SDS011;708;51.442;7.016;2022-12-18T10:51:47;5.57;;;4.22;;
1428;SDS011;708;51.442;7.016;2022-12-18T10:54:14;5.45;;;4.15;;
1428;SDS011;708;51.442;7.016;2022-12-18T10:56:45;6.25;;;3.78;;
1428;SDS011;708;51.442;7.016;2022-12-18T10:59:13;5.18;;;4.15;;
1428;SDS011;708;51.442;7.016;2022-12-18T11:01:48;8.90;;;4.50;;
1428;SDS011;708;51.442;7.016;2022-12-18T11:04:18;8.35;;;4.82;;
1428;SDS011;708;51.442;7.016;2022-12-18T11:06:53;6.18;;;4.40;;
1428;SDS011;708;51.442;7.016;2022-12-18T11:09:22;5.85;;;4.07;;
1428;SDS011;708;51.442;7.016;2022-12-18T11:11:52;6.45;;;4.70;;
1428;SDS011;708;51.442;7.016;2022-12-18T11:14:21;6.60;;;4.25;;
1428;SDS011;708;51.442;7.016;2022-12-18T11:16:50;4.43;;;3.72;;
1428;SDS011;708;51.442;7.016;2022-12-18T11:19:28;5.85;;;4.10;;
1428;SDS011;708;51.442;7.016;2022-12-18T11:21:58;9.20;;;4.65;;
1428;SDS011;708;51.442;7.016;2022-12-18T11:24:27;4.13;;;3.45;;
1428;SDS011;708;51.442;7.016;2022-12-18T11:26:59;6.45;;;4.18;;
1428;SDS011;708;51.442;7.016;2022-12-18T11:29:30;7.95;;;4.40;;
1428;SDS011;708;51.442;7.016;2022-12-18T11:32:18;7.13;;;5.25;;
1428;SDS011;708;51.442;7.016;2022-12-18T11:34:52;7.00;;;5.03;;
1428;SDS011;708;51.442;7.016;2022-12-18T11:37:25;7.03;;;4.82;;
1428;SDS011;708;51.442;7.016;2022-12-18T11:39:54;6.70;;;4.60;;
1428;SDS011;708;51.442;7.016;2022-12-18T11:42:27;5.82;;;4.05;;
1428;SDS011;708;51.442;7.016;2022-12-18T11:45:03;16.05;;;4.60;;
1428;SDS011;708;51.442;7.016;2022-12-18T11:47:48;8.38;;;4.82;;
1428;SDS011;708;51.442;7.016;2022-12-18T11:50:21;7.13;;;5.05;;
1428;SDS011;708;51.442;7.016;2022-12-18T11:52:52;6.63;;;4.75;;
1428;SDS011;708;51.442;7.016;2022-12-18T11:55:22;6.88;;;4.63;;
1428;SDS011;708;51.442;7.016;2022-12-18T11:58:00;7.90;;;5.28;;
1428;SDS011;708;51.442;7.016;2022-12-18T12:00:35;9.85;;;5.38;;
1428;SDS011;708;51.442;7.016;2022-12-18T12:03:14;10.15;;;5.95;;
1428;SDS011;708;51.442;7.016;2022-12-18T12:05:50;10.75;;;5.15;;
1428;SDS011;708;51.442;7.016;2022-12-18T12:08:28;10.48;;;5.25;;
1428;SDS011;708;51.442;7.016;2022-12-18T12:11:02;10.20;;;6.07;;
1428;SDS011;708;51.442;7.016;2022-12-18T12:13:40;8.40;;;4.80;;
1428;SDS011;708;51.442;7.016;2022-12-18T12:16:17;13.75;;;5.88;;
1428;SDS011;708;51.442;7.016;2022-12-18T12:18:54;8.55;;;5.28;;
1428;SDS011;708;51.442;7.016;2022-12-18T12:21:42;7.05;;;4.80;;
1428;SDS011;708;51.442;7.016;2022-12-18T12:24:19;6.55;;;4.45;;
1428;SDS011;708;51.442;7.016;2022-12-18T12:26:56;6.85;;;4.68;;
1428;SDS011;708;51.442;7.016;2022-12-18T12:29:33;14.60;;;5.00;;
1428;SDS011;708;51.442;7.016;2022-12-18T12:32:10;8.38;;;5.43;;
1428;SDS011;708;51.442;7.016;2022-12-18T12:34:46;7.40;;;4.30;;
1428;SDS011;708;51.442;7.016;2022-12-18T12:37:26;5.55;;;3.63;;
1428;SDS011;708;51.442;7.016;2022-12-18T12:40:01;7.80;;;4.88;;
1428;SDS011;708;51.442;7.016;2022-12-18T12:42:30;6.60;;;4.90;;
1428;SDS011;708;51.442;7.016;2022-12-18T12:45:20;7.68;;;5.75;;
1428;SDS011;708;51.442;7.016;2022-12-18T12:47:52;8.77;;;5.47;;
1428;SDS011;708;51.442;7.016;2022-12-18T12:50:20;7.13;;;5.57;;
1428;SDS011;708;51.442;7.016;2022-12-18T12:52:49;10.05;;;5.68;;
1428;SDS011;708;51.442;7.016;2022-12-18T12:55:19;9.80;;;5.78;;
1428;SDS011;708;51.442;7.016;2022-12-18T12:57:50;7.43;;;5.13;;
1428;SDS011;708;51.442;7.016;2022-12-18T13:00:25;9.48;;;5.60;;
1428;SDS011;708;51.442;7.016;2022-12-18T13:02:56;8.55;;;5.35;;
1428;SDS011;708;51.442;7.016;2022-12-18T13:05:31;6.65;;;5.07;;
1428;SDS011;708;51.442;7.016;2022-12-18T13:08:06;6.35;;;4.75;;
1428;SDS011;708;51.442;7.016;2022-12-18T13:10:35;7.28;;;5.60;;
1428;SDS011;708;51.442;7.016;2022-12-18T13:13:04;8.70;;;5.57;;
1428;SDS011;708;51.442;7.016;2022-12-18T13:15:34;10.38;;;5.97;;
1428;SDS011;708;51.442;7.016;2022-12-18T13:18:18;16.65;;;6.55;;
1428;SDS011;708;51.442;7.016;2022-12-18T13:20:46;10.27;;;5.97;;
1428;SDS011;708;51.442;7.016;2022-12-18T13:25:59;11.27;;;6.50;;
1428;SDS011;708;51.442;7.016;2022-12-18T13:28:54;7.82;;;6.80;;
1428;SDS011;708;51.442;7.016;2022-12-18T13:34:32;8.82;;;6.72;;
1428;SDS011;708;51.442;7.016;2022-12-18T13:43:15;10.07;;;7.90;;
1428;SDS011;708;51.442;7.016;2022-12-18T13:45:58;8.38;;;6.28;;
1428;SDS011;708;51.442;7.016;2022-12-18T13:48:31;10.23;;;6.88;;
1428;SDS011;708;51.442;7.016;2022-12-18T13:51:00;9.50;;;7.50;;
1428;SDS011;708;51.442;7.016;2022-12-18T13:53:30;12.10;;;7.45;;
1428;SDS011;708;51.442;7.016;2022-12-18T13:56:02;10.32;;;7.55;;
1428;SDS011;708;51.442;7.016;2022-12-18T13:58:30;14.23;;;8.75;;
1428;SDS011;708;51.442;7.016;2022-12-18T14:00:58;15.85;;;8.10;;
1428;SDS011;708;51.442;7.016;2022-12-18T14:03:28;12.07;;;7.32;;
1428;SDS011;708;51.442;7.016;2022-12-18T14:05:56;11.18;;;7.55;;
1428;SDS011;708;51.442;7.016;2022-12-18T14:08:27;10.43;;;7.43;;
1428;SDS011;708;51.442;7.016;2022-12-18T14:10:59;12.27;;;7.45;;
1428;SDS011;708;51.442;7.016;2022-12-18T14:13:28;11.07;;;8.18;;
1428;SDS011;708;51.442;7.016;2022-12-18T14:15:57;11.70;;;7.75;;
1428;SDS011;708;51.442;7.016;2022-12-18T14:18:26;13.40;;;8.38;;
1428;SDS011;708;51.442;7.016;2022-12-18T14:20:59;10.93;;;8.32;;
1428;SDS011;708;51.442;7.016;2022-12-18T14:23:31;12.52;;;9.32;;
1428;SDS011;708;51.442;7.016;2022-12-18T14:26:00;11.13;;;8.27;;
1428;SDS011;708;51.442;7.016;2022-12-18T14:28:28;17.58;;;9.05;;
1428;SDS011;708;51.442;7.016;2022-12-18T14:30:55;12.77;;;7.95;;
1428;SDS011;708;51.442;7.016;2022-12-18T14:33:24;11.18;;;8.98;;
1428;SDS011;708;51.442;7.016;2022-12-18T14:35:54;13.55;;;9.23;;
1428;SDS011;708;51.442;7.016;2022-12-18T14:38:24;10.88;;;8.48;;
1428;SDS011;708;51.442;7.016;2022-12-18T14:40:56;20.33;;;8.38;;
1428;SDS011;708;51.442;7.016;2022-12-18T14:43:24;11.98;;;9.63;;
1428;SDS011;708;51.442;7.016;2022-12-18T14:45:52;12.15;;;8.48;;
1428;SDS011;708;51.442;7.016;2022-12-18T14:48:20;15.50;;;8.48;;
1428;SDS011;708;51.442;7.016;2022-12-18T14:50:55;12.25;;;8.65;;
1428;SDS011;708;51.442;7.016;2022-12-18T14:53:27;30.65;;;10.60;;
1428;SDS011;708;51.442;7.016;2022-12-18T14:56:01;16.92;;;10.35;;
1428;SDS011;708;51.442;7.016;2022-12-18T14:58:31;10.60;;;8.50;;
1428;SDS011;708;51.442;7.016;2022-12-18T15:00:58;14.85;;;9.88;;
1428;SDS011;708;51.442;7.016;2022-12-18T15:03:25;15.68;;;10.68;;
1428;SDS011;708;51.442;7.016;2022-12-18T15:05:51;14.65;;;11.05;;
1428;SDS011;708;51.442;7.016;2022-12-18T15:08:30;13.02;;;9.63;;
1428;SDS011;708;51.442;7.016;2022-12-18T15:11:01;14.85;;;9.35;;
1428;SDS011;708;51.442;7.016;2022-12-18T15:13:29;14.45;;;9.68;;
1428;SDS011;708;51.442;7.016;2022-12-18T15:15:55;13.32;;;10.30;;
1428;SDS011;708;51.442;7.016;2022-12-18T15:18:30;14.35;;;9.27;;
1428;SDS011;708;51.442;7.016;2022-12-18T15:21:07;17.08;;;11.25;;
1428;SDS011;708;51.442;7.016;2022-12-18T15:23:37;17.60;;;10.75;;
1428;SDS011;708;51.442;7.016;2022-12-18T15:26:13;15.80;;;10.30;;
1428;SDS011;708;51.442;7.016;2022-12-18T15:28:43;17.40;;;9.27;;
1428;SDS011;708;51.442;7.016;2022-12-18T15:31:22;13.27;;;10.63;;
1428;SDS011;708;51.442;7.016;2022-12-18T15:34:01;15.27;;;11.07;;
1428;SDS011;708;51.442;7.016;2022-12-18T15:36:37;17.33;;;11.35;;
1428;SDS011;708;51.442;7.016;2022-12-18T15:39:05;16.00;;;11.00;;
1428;SDS011;708;51.442;7.016;2022-12-18T15:41:33;13.27;;;9.85;;
1428;SDS011;708;51.442;7.016;2022-12-18T15:44:01;14.98;;;10.38;;
1428;SDS011;708;51.442;7.016;2022-12-18T15:46:27;14.93;;;9.60;;
1428;SDS011;708;51.442;7.016;2022-12-18T15:48:56;18.85;;;11.55;;
1428;SDS011;708;51.442;7.016;2022-12-18T15:51:23;15.55;;;11.23;;
1428;SDS011;708;51.442;7.016;2022-12-18T15:53:53;16.73;;;10.65;;
1428;SDS011;708;51.442;7.016;2022-12-18T15:56:23;16.45;;;11.77;;
1428;SDS011;708;51.442;7.016;2022-12-18T15:59:08;22.13;;;13.23;;